createdAt,value
2023-04-01T00:01:08.023Z,99.90
2023-04-01T00:03:37.212Z,99.90
2023-04-01T00:06:06.342Z,99.90
2023-04-01T00:08:35.826Z,99.90
2023-04-01T00:11:04.058Z,99.90
2023-04-01T00:13:33.320Z,99.90
2023-04-01T00:16:03.402Z,99.90
2023-04-01T00:18:32.613Z,99.90
2023-04-01T00:21:00.953Z,99.90
2023-04-01T00:23:29.145Z,99.90
2023-04-01T00:26:00.970Z,99.90
2023-04-01T00:28:29.706Z,99.90
2023-04-01T00:30:57.758Z,99.90
2023-04-01T00:33:26.352Z,99.90
2023-04-01T00:35:55.226Z,99.90
2023-04-01T00:38:23.769Z,99.90
2023-04-01T00:40:52.060Z,99.90
2023-04-01T00:43:22.867Z,99.90
2023-04-01T00:45:51.998Z,99.90
2023-04-01T00:48:22.572Z,99.90
2023-04-01T00:50:53.591Z,99.90
2023-04-01T00:53:22.684Z,99.90
2023-04-01T00:55:56.329Z,99.90
2023-04-01T00:58:28.921Z,99.90
2023-04-01T01:00:57.876Z,99.90
2023-04-01T01:03:26.209Z,99.90
2023-04-01T01:06:10.693Z,99.90
2023-04-01T01:09:04.849Z,99.90
2023-04-01T01:11:43.847Z,99.90
2023-04-01T01:14:27.054Z,99.90
2023-04-01T01:17:01.000Z,99.90
2023-04-01T01:19:51.466Z,99.90
2023-04-01T01:22:36.290Z,99.90
2023-04-01T01:25:17.472Z,99.90
2023-04-01T01:27:54.756Z,99.90
2023-04-01T01:30:37.426Z,99.90
2023-04-01T01:33:32.173Z,99.90
2023-04-01T01:36:07.024Z,99.90
2023-04-01T01:38:37.394Z,99.90
2023-04-01T01:41:07.588Z,99.90
2023-04-01T01:43:40.849Z,99.90
2023-04-01T01:46:12.864Z,99.90
2023-04-01T01:48:44.104Z,99.90
2023-04-01T01:51:13.808Z,99.90
2023-04-01T01:53:41.896Z,99.90
2023-04-01T01:56:13.554Z,99.90
2023-04-01T01:58:46.324Z,99.90
2023-04-01T02:01:17.815Z,99.90
2023-04-01T02:03:47.780Z,99.90
2023-04-01T02:06:19.801Z,99.90
2023-04-01T02:08:52.743Z,99.90
2023-04-01T02:11:26.923Z,99.90
2023-04-01T02:13:58.229Z,99.90
2023-04-01T02:16:30.778Z,99.90
2023-04-01T02:19:01.732Z,99.90
2023-04-01T02:21:34.248Z,99.90
2023-04-01T02:24:06.593Z,99.90
2023-04-01T02:26:34.724Z,99.90
2023-04-01T02:29:05.630Z,99.90
2023-04-01T02:31:34.658Z,99.90
2023-04-01T02:34:04.428Z,99.90
2023-04-01T02:36:33.957Z,99.90
2023-04-01T02:39:05.217Z,99.90
2023-04-01T02:41:33.305Z,99.90
2023-04-01T02:44:01.360Z,99.90
2023-04-01T02:46:29.429Z,99.90
2023-04-01T02:48:57.472Z,99.90
2023-04-01T02:51:25.521Z,99.90
2023-04-01T02:53:55.001Z,99.90
2023-04-01T02:56:22.856Z,99.90
2023-04-01T02:58:51.644Z,99.90
2023-04-01T03:01:19.768Z,99.90
2023-04-01T03:03:47.859Z,99.90
2023-04-01T03:06:17.915Z,99.90
2023-04-01T03:08:46.460Z,99.90
2023-04-01T03:11:16.366Z,99.90
2023-04-01T03:13:44.432Z,99.90
2023-04-01T03:16:12.560Z,99.90
2023-04-01T03:18:40.893Z,99.90
2023-04-01T03:21:17.476Z,99.90
2023-04-01T03:23:45.702Z,99.90
2023-04-01T03:26:15.417Z,99.90
2023-04-01T03:28:43.509Z,99.90
2023-04-01T03:31:11.720Z,99.90
2023-04-01T03:33:40.058Z,99.90
2023-04-01T03:36:08.590Z,99.90
2023-04-01T03:38:37.442Z,99.90
2023-04-01T03:41:06.145Z,99.90
2023-04-01T03:43:35.889Z,99.90
2023-04-01T03:46:03.988Z,99.90
2023-04-01T03:48:32.073Z,99.90
2023-04-01T03:51:00.322Z,99.90
2023-04-01T03:53:28.775Z,99.90
2023-04-01T03:55:56.823Z,99.90
2023-04-01T03:58:24.890Z,99.90
2023-04-01T04:00:54.258Z,99.90
2023-04-01T04:03:22.400Z,99.90
2023-04-01T04:05:51.038Z,99.90
2023-04-01T04:08:19.829Z,99.90
2023-04-01T04:10:47.924Z,99.90
2023-04-01T04:13:15.985Z,99.90
2023-04-01T04:15:44.063Z,99.90
2023-04-01T04:18:13.504Z,99.90
2023-04-01T04:20:46.731Z,99.90
2023-04-01T04:23:14.784Z,99.90
2023-04-01T04:25:42.879Z,99.90
2023-04-01T04:28:11.041Z,99.90
2023-04-01T04:30:39.074Z,99.90
2023-04-01T04:33:07.683Z,99.90
2023-04-01T04:35:37.111Z,99.90
2023-04-01T04:38:05.223Z,99.90
2023-04-01T04:40:33.305Z,99.90
2023-04-01T04:43:01.399Z,99.90
2023-04-01T04:45:29.473Z,99.90
2023-04-01T04:47:57.592Z,99.90
2023-04-01T04:50:26.355Z,99.90
2023-04-01T04:52:55.880Z,99.90
2023-04-01T04:55:23.750Z,99.90
2023-04-01T04:57:51.770Z,99.90
2023-04-01T05:00:20.432Z,99.90
2023-04-01T05:02:48.505Z,99.90
2023-04-01T05:05:16.740Z,99.90
2023-04-01T05:07:44.810Z,99.90
2023-04-01T05:10:14.243Z,99.90
2023-04-01T05:12:42.302Z,99.90
2023-04-01T05:15:11.485Z,99.90
2023-04-01T05:17:39.589Z,99.90
2023-04-01T05:20:08.962Z,99.90
2023-04-01T05:22:37.051Z,99.90
2023-04-01T05:25:05.596Z,99.90
2023-04-01T05:27:35.246Z,99.90
2023-04-01T05:30:03.155Z,99.90
2023-04-01T05:32:33.196Z,99.90
2023-04-01T05:35:01.245Z,99.90
2023-04-01T05:37:29.269Z,99.90
2023-04-01T05:39:57.357Z,99.90
2023-04-01T05:42:25.603Z,99.90
2023-04-01T05:44:56.150Z,99.90
2023-04-01T05:47:24.585Z,99.90
2023-04-01T05:49:52.663Z,99.90
2023-04-01T05:52:20.918Z,99.90
2023-04-01T05:54:48.974Z,99.90
2023-04-01T05:57:17.065Z,99.90
2023-04-01T05:59:45.537Z,99.90
2023-04-01T06:02:15.142Z,99.90
2023-04-01T06:04:43.039Z,99.90
2023-04-01T06:07:15.313Z,99.90
2023-04-01T06:09:43.863Z,99.90
2023-04-01T06:12:37.983Z,99.90
2023-04-01T06:15:21.376Z,99.90
2023-04-01T06:18:17.213Z,99.90
2023-04-01T06:20:55.476Z,99.90
2023-04-01T06:23:45.570Z,99.90
2023-04-01T06:26:22.972Z,99.90
2023-04-01T06:29:28.220Z,99.90
2023-04-01T06:32:26.108Z,99.90
2023-04-01T06:35:15.139Z,99.90
2023-04-01T06:38:02.421Z,99.90
2023-04-01T06:40:58.396Z,99.90
2023-04-01T06:43:36.410Z,99.90
2023-04-01T06:46:12.824Z,99.90
2023-04-01T06:48:53.844Z,99.90
2023-04-01T06:51:31.405Z,99.90
2023-04-01T06:54:06.884Z,99.90
2023-04-01T06:56:38.679Z,99.90
2023-04-01T06:59:12.055Z,99.90
2023-04-01T07:01:43.243Z,99.90
2023-04-01T07:04:16.229Z,99.90
2023-04-01T07:06:49.303Z,99.90
2023-04-01T07:09:21.596Z,99.90
2023-04-01T07:11:49.796Z,99.90
2023-04-01T07:14:24.215Z,99.90
2023-04-01T07:16:58.974Z,99.90
2023-04-01T07:19:31.356Z,99.90
2023-04-01T07:22:05.345Z,99.90
2023-04-01T07:24:36.533Z,99.90
2023-04-01T07:27:04.813Z,99.90
2023-04-01T07:29:32.955Z,99.90
2023-04-01T07:32:22.847Z,99.50
2023-04-01T07:35:04.492Z,99.20
2023-04-01T07:37:42.786Z,98.20
2023-04-01T07:40:23.533Z,97.80
2023-04-01T07:43:07.259Z,97.10
2023-04-01T07:45:43.080Z,96.80
2023-04-01T07:48:22.395Z,96.40
2023-04-01T07:50:58.545Z,96.50
2023-04-01T07:53:36.129Z,96.10
2023-04-01T07:56:12.643Z,96.70
2023-04-01T07:58:53.168Z,97.00
2023-04-01T08:01:33.432Z,96.60
2023-04-01T08:04:27.543Z,97.00
2023-04-01T08:07:03.020Z,97.40
2023-04-01T08:09:42.829Z,97.60
2023-04-01T08:12:20.960Z,97.90
2023-04-01T08:14:58.337Z,97.70
2023-04-01T08:17:34.604Z,98.50
2023-04-01T08:20:16.319Z,98.40
2023-04-01T08:22:46.708Z,98.00
2023-04-01T08:25:22.545Z,98.10
2023-04-01T08:27:55.420Z,98.00
2023-04-01T08:30:26.855Z,97.80
2023-04-01T08:33:00.930Z,97.80
2023-04-01T08:35:34.819Z,97.10
2023-04-01T08:38:12.901Z,97.30
2023-04-01T08:41:01.581Z,97.50
2023-04-01T08:44:01.510Z,97.10
2023-04-01T08:46:50.280Z,97.20
2023-04-01T08:49:30.862Z,97.90
2023-04-01T08:52:24.329Z,98.00
2023-04-01T08:55:25.101Z,98.10
2023-04-01T08:58:19.923Z,97.80
2023-04-01T09:00:53.886Z,98.10
2023-04-01T09:03:39.185Z,98.20
2023-04-01T09:06:35.348Z,98.00
2023-04-01T09:09:45.976Z,97.80
2023-04-01T09:12:45.337Z,98.10
2023-04-01T09:15:39.522Z,98.00
2023-04-01T09:18:38.927Z,97.40
2023-04-01T09:21:15.889Z,97.70
2023-04-01T09:23:56.404Z,97.50
2023-04-01T09:26:43.781Z,97.20
2023-04-01T09:29:28.112Z,96.70
2023-04-01T09:32:30.535Z,96.40
2023-04-01T09:35:09.037Z,96.70
2023-04-01T09:37:43.275Z,96.30
2023-04-01T09:40:20.518Z,96.00
2023-04-01T09:43:16.714Z,94.90
2023-04-01T09:45:55.940Z,94.30
2023-04-01T09:48:55.509Z,95.50
2023-04-01T09:51:28.915Z,94.90
2023-04-01T09:54:09.456Z,95.10
2023-04-01T09:57:13.104Z,95.40
2023-04-01T10:00:06.128Z,94.20
2023-04-01T10:03:06.029Z,94.10
2023-04-01T10:06:15.386Z,93.80
2023-04-01T10:09:15.145Z,94.20
2023-04-01T10:12:19.789Z,93.60
2023-04-01T10:15:22.183Z,93.70
2023-04-01T10:18:38.124Z,93.80
2023-04-01T10:21:26.938Z,93.20
2023-04-01T10:24:18.497Z,92.50
2023-04-01T10:27:10.453Z,92.90
2023-04-01T10:30:05.781Z,93.30
2023-04-01T10:33:00.866Z,91.90
2023-04-01T10:36:03.042Z,91.90
2023-04-01T10:39:10.698Z,92.30
2023-04-01T10:42:03.578Z,91.90
2023-04-01T10:45:13.476Z,92.00
2023-04-01T10:48:10.193Z,91.00
2023-04-01T10:51:03.659Z,89.90
2023-04-01T10:54:04.388Z,90.00
2023-04-01T10:56:40.861Z,89.80
2023-04-01T10:59:48.795Z,89.00
2023-04-01T11:02:53.700Z,89.60
2023-04-01T11:05:55.854Z,90.90
2023-04-01T11:08:50.758Z,91.30
2023-04-01T11:12:00.973Z,90.00
2023-04-01T11:15:04.537Z,88.20
2023-04-01T11:18:15.500Z,89.40
2023-04-01T11:21:04.875Z,89.50
2023-04-01T11:24:05.731Z,85.80
2023-04-01T11:26:41.038Z,84.80
2023-04-01T11:29:58.786Z,85.20
2023-04-01T11:32:44.118Z,84.00
2023-04-01T11:35:35.087Z,83.60
2023-04-01T11:38:18.123Z,87.10
2023-04-01T11:40:54.939Z,87.90
2023-04-01T11:43:33.803Z,88.80
2023-04-01T11:46:09.950Z,86.70
2023-04-01T11:49:00.483Z,89.40
2023-04-01T11:51:55.200Z,88.70
2023-04-01T11:54:47.007Z,85.20
2023-04-01T11:57:37.779Z,89.40
2023-04-01T12:00:24.355Z,89.10
2023-04-01T12:03:12.738Z,86.80
2023-04-01T12:05:48.682Z,84.80
2023-04-01T12:08:26.585Z,78.60
2023-04-01T12:11:02.413Z,76.50
2023-04-01T12:13:42.343Z,78.60
2023-04-01T12:16:22.639Z,74.00
2023-04-01T12:18:57.541Z,68.70
2023-04-01T12:21:31.888Z,69.40
2023-04-01T12:24:39.626Z,70.60
2023-04-01T12:27:37.758Z,66.00
2023-04-01T12:30:38.183Z,63.80
2023-04-01T12:33:26.650Z,65.00
2023-04-01T12:36:03.759Z,63.40
2023-04-01T12:38:44.813Z,59.60
2023-04-01T12:41:21.113Z,59.50
2023-04-01T12:44:18.024Z,58.30
2023-04-01T12:47:12.019Z,60.90
2023-04-01T12:50:11.782Z,60.30
2023-04-01T12:52:57.450Z,59.50
2023-04-01T12:55:39.902Z,58.40
2023-04-01T12:58:37.157Z,57.30
2023-04-01T13:01:31.345Z,59.50
2023-04-01T13:04:40.937Z,62.50
2023-04-01T13:07:26.545Z,59.80
2023-04-01T13:10:03.827Z,60.20
2023-04-01T13:12:46.586Z,58.70
2023-04-01T13:15:27.113Z,56.80
2023-04-01T13:18:01.005Z,56.10
2023-04-01T13:20:42.641Z,55.90
2023-04-01T13:23:22.958Z,54.20
2023-04-01T13:26:13.537Z,52.90
2023-04-01T13:28:49.468Z,53.80
2023-04-01T13:31:33.247Z,54.00
2023-04-01T13:34:25.358Z,52.50
2023-04-01T13:37:06.856Z,53.40
2023-04-01T13:39:59.318Z,55.10
2023-04-01T13:42:31.374Z,54.90
2023-04-01T13:45:05.052Z,52.50
2023-04-01T13:48:01.672Z,53.70
2023-04-01T13:50:44.992Z,54.90
2023-04-01T13:53:52.733Z,55.30
2023-04-01T13:56:35.704Z,57.00
2023-04-01T13:59:35.038Z,57.30
2023-04-01T14:02:12.541Z,57.50
2023-04-01T14:04:58.311Z,59.30
2023-04-01T14:07:43.046Z,59.10
2023-04-01T14:10:21.523Z,60.40
2023-04-01T14:12:58.251Z,61.30
2023-04-01T14:15:44.146Z,62.80
2023-04-01T14:18:41.481Z,64.50
2023-04-01T14:21:33.924Z,67.10
2023-04-01T14:24:20.248Z,68.30
2023-04-01T14:27:18.646Z,69.50
2023-04-01T14:30:00.305Z,70.10
2023-04-01T14:32:35.866Z,71.60
2023-04-01T14:35:39.240Z,70.40
2023-04-01T14:38:38.186Z,71.00
2023-04-01T14:41:19.107Z,72.60
2023-04-01T14:44:01.590Z,72.30
2023-04-01T14:46:52.107Z,71.00
2023-04-01T14:49:25.152Z,71.10
2023-04-01T14:51:55.095Z,73.00
2023-04-01T14:54:34.187Z,73.20
2023-04-01T14:57:13.112Z,73.50
2023-04-01T14:59:47.823Z,72.70
2023-04-01T15:02:35.394Z,72.90
2023-04-01T15:05:15.936Z,73.40
2023-04-01T15:08:09.199Z,73.20
2023-04-01T15:11:16.190Z,73.10
2023-04-01T15:14:22.722Z,74.30
2023-04-01T15:17:02.203Z,74.70
2023-04-01T15:19:41.062Z,75.40
2023-04-01T15:22:29.638Z,76.20
2023-04-01T15:25:18.609Z,75.70
2023-04-01T15:27:50.323Z,76.20
2023-04-01T15:30:29.724Z,76.60
2023-04-01T15:33:04.739Z,76.70
2023-04-01T15:35:42.130Z,77.20
2023-04-01T15:38:18.524Z,78.00
2023-04-01T15:40:52.808Z,78.70
2023-04-01T15:43:35.294Z,80.10
2023-04-01T15:46:25.672Z,81.50
2023-04-01T15:49:05.567Z,82.30
2023-04-01T15:52:04.368Z,84.00
2023-04-01T15:54:54.034Z,84.90
2023-04-01T15:57:42.160Z,87.20
2023-04-01T16:00:27.734Z,88.60
2023-04-01T16:03:16.047Z,90.00
2023-04-01T16:05:56.058Z,91.50
2023-04-01T16:08:41.697Z,91.10
2023-04-01T16:11:21.752Z,91.20
2023-04-01T16:14:01.381Z,91.80
2023-04-01T16:16:39.255Z,91.70
2023-04-01T16:19:25.073Z,92.20
2023-04-01T16:22:01.676Z,92.30
2023-04-01T16:24:36.381Z,92.90
2023-04-01T16:27:07.734Z,93.30
2023-04-01T16:29:46.048Z,93.60
2023-04-01T16:32:39.539Z,93.80
2023-04-01T16:35:30.654Z,94.40
2023-04-01T16:38:05.949Z,94.50
2023-04-01T16:40:44.576Z,95.10
2023-04-01T16:43:23.526Z,95.50
2023-04-01T16:46:11.344Z,95.80
2023-04-01T16:48:54.119Z,96.10
2023-04-01T16:51:23.279Z,96.50
2023-04-01T16:54:04.466Z,96.90
2023-04-01T16:56:44.137Z,97.60
2023-04-01T16:59:20.631Z,98.00
2023-04-01T17:01:55.689Z,98.20
2023-04-01T17:04:33.378Z,99.10
2023-04-01T17:07:12.397Z,99.00
2023-04-01T17:10:00.148Z,99.30
2023-04-01T17:12:37.563Z,99.80
2023-04-01T17:15:16.966Z,99.80
2023-04-01T17:17:52.169Z,99.90
2023-04-01T17:20:33.322Z,99.90
2023-04-01T17:23:06.295Z,99.90
2023-04-01T17:26:02.888Z,99.90
2023-04-01T17:28:48.121Z,99.90
2023-04-01T17:31:28.566Z,99.90
2023-04-01T17:34:34.192Z,99.90
2023-04-01T17:37:15.238Z,99.90
2023-04-01T17:39:56.036Z,99.90
2023-04-01T17:42:36.272Z,99.90
2023-04-01T17:45:11.436Z,99.90
2023-04-01T17:47:49.920Z,99.90
2023-04-01T17:50:30.401Z,99.90
2023-04-01T17:53:13.728Z,99.90
2023-04-01T17:55:52.403Z,99.90
2023-04-01T17:58:22.421Z,99.90
2023-04-01T18:01:05.565Z,99.90
2023-04-01T18:03:58.107Z,99.90
2023-04-01T18:07:01.734Z,99.90
2023-04-01T18:09:39.277Z,99.90
2023-04-01T18:12:17.016Z,99.90
2023-04-01T18:15:06.338Z,99.90
2023-04-01T18:17:49.445Z,99.90
2023-04-01T18:20:29.941Z,99.90
2023-04-01T18:23:03.607Z,99.90
2023-04-01T18:25:37.868Z,99.90
2023-04-01T18:28:28.590Z,99.90
2023-04-01T18:31:02.061Z,99.90
2023-04-01T18:33:36.909Z,99.90
2023-04-01T18:36:17.693Z,99.90
2023-04-01T18:38:52.442Z,99.90
2023-04-01T18:41:28.432Z,99.90
2023-04-01T18:44:05.857Z,99.90
2023-04-01T18:46:41.953Z,99.90
2023-04-01T18:49:19.169Z,99.90
2023-04-01T18:51:54.794Z,99.90
2023-04-01T18:54:31.440Z,99.90
2023-04-01T18:57:06.496Z,99.90
2023-04-01T18:59:41.381Z,99.90
2023-04-01T19:02:22.513Z,99.90
2023-04-01T19:04:58.962Z,99.90
2023-04-01T19:07:49.254Z,99.90
2023-04-01T19:10:33.256Z,99.90
2023-04-01T19:13:13.393Z,99.90
2023-04-01T19:15:46.147Z,99.90
2023-04-01T19:18:34.025Z,99.90
2023-04-01T19:21:07.911Z,99.90
2023-04-01T19:24:13.512Z,99.90
2023-04-01T19:26:47.570Z,99.90
2023-04-01T19:29:40.457Z,99.90
2023-04-01T19:32:18.914Z,99.90
2023-04-01T19:34:56.362Z,99.90
2023-04-01T19:37:36.738Z,99.90
2023-04-01T19:40:30.359Z,99.90
2023-04-01T19:43:05.662Z,99.90
2023-04-01T19:45:42.298Z,99.90
2023-04-01T19:48:39.456Z,99.90
2023-04-01T19:51:13.042Z,99.90
2023-04-01T19:53:49.474Z,99.90
2023-04-01T19:56:20.261Z,99.90
2023-04-01T19:58:55.561Z,99.90
2023-04-01T20:01:41.663Z,99.90
2023-04-01T20:04:19.247Z,99.90
2023-04-01T20:06:53.150Z,99.90
2023-04-01T20:09:51.178Z,99.90
2023-04-01T20:12:31.861Z,99.90
2023-04-01T20:15:04.844Z,99.90
2023-04-01T20:17:40.949Z,99.90
2023-04-01T20:20:22.246Z,99.90
2023-04-01T20:23:14.848Z,99.90
2023-04-01T20:25:48.509Z,99.90
2023-04-01T20:28:25.289Z,99.90
2023-04-01T20:31:06.544Z,99.90
2023-04-01T20:33:55.301Z,99.90
2023-04-01T20:36:27.733Z,99.90
2023-04-01T20:39:16.291Z,99.90
2023-04-01T20:42:01.875Z,99.90
2023-04-01T20:44:38.134Z,99.90
2023-04-01T20:47:19.801Z,99.90
2023-04-01T20:50:00.310Z,99.90
2023-04-01T20:52:35.105Z,99.90
2023-04-01T20:55:26.992Z,99.90
2023-04-01T20:58:05.998Z,99.90
2023-04-01T21:00:39.980Z,99.90
2023-04-01T21:03:25.168Z,99.90
2023-04-01T21:06:27.666Z,99.90
2023-04-01T21:09:16.463Z,99.90
2023-04-01T21:11:54.050Z,99.90
2023-04-01T21:14:42.677Z,99.90
2023-04-01T21:17:17.290Z,99.90
2023-04-01T21:20:01.175Z,99.90
2023-04-01T21:22:49.396Z,99.90
2023-04-01T21:25:46.888Z,99.90
2023-04-01T21:28:45.181Z,99.90
2023-04-01T21:31:25.144Z,99.90
2023-04-01T21:34:08.580Z,99.90
2023-04-01T21:37:00.554Z,99.90
2023-04-01T21:40:04.602Z,99.90
2023-04-01T21:42:45.643Z,99.90
2023-04-01T21:45:27.237Z,99.90
2023-04-01T21:48:24.498Z,99.90
2023-04-01T21:51:11.620Z,99.90
2023-04-01T21:54:23.178Z,99.90
2023-04-01T21:57:37.101Z,99.90
2023-04-01T22:00:17.316Z,99.90
2023-04-01T22:03:19.863Z,99.90
2023-04-01T22:06:00.424Z,99.90
2023-04-01T22:08:44.110Z,99.90
2023-04-01T22:11:23.633Z,99.90
2023-04-01T22:13:52.819Z,99.90
2023-04-01T22:16:29.338Z,99.90
2023-04-01T22:19:05.281Z,99.90
2023-04-01T22:21:43.195Z,99.90
2023-04-01T22:24:18.814Z,99.90
2023-04-01T22:26:55.884Z,99.90
2023-04-01T22:29:30.899Z,99.90
2023-04-01T22:32:05.912Z,99.90
2023-04-01T22:34:44.344Z,99.90
2023-04-01T22:37:24.297Z,99.90
2023-04-01T22:40:10.983Z,99.90
2023-04-01T22:42:46.734Z,99.90
2023-04-01T22:45:33.807Z,99.90
2023-04-01T22:48:09.887Z,99.90
2023-04-01T22:50:42.590Z,99.90
2023-04-01T22:53:26.126Z,99.90
2023-04-01T22:55:56.059Z,99.90
2023-04-01T22:58:32.510Z,99.90
2023-04-01T23:01:06.675Z,99.90
2023-04-01T23:03:38.043Z,99.90
2023-04-01T23:06:07.160Z,99.90
2023-04-01T23:09:03.527Z,99.90
2023-04-01T23:11:36.112Z,99.90
2023-04-01T23:14:32.803Z,99.90
2023-04-01T23:17:05.767Z,99.90
2023-04-01T23:19:42.822Z,99.90
2023-04-01T23:22:22.358Z,99.90
2023-04-01T23:24:52.434Z,99.90
2023-04-01T23:27:25.765Z,99.90
2023-04-01T23:29:55.383Z,99.90
2023-04-01T23:32:27.209Z,99.90
2023-04-01T23:34:57.299Z,99.90
2023-04-01T23:37:25.989Z,99.90
2023-04-01T23:39:56.194Z,99.90
2023-04-01T23:42:27.655Z,99.90
2023-04-01T23:44:59.845Z,99.90
2023-04-01T23:47:32.936Z,99.90
2023-04-01T23:50:04.755Z,99.90
2023-04-01T23:52:37.248Z,99.90
2023-04-01T23:55:14.962Z,99.90
2023-04-01T23:57:43.159Z,99.90
